createdAt,value
2018-12-19T00:00:59.006Z,1007.20
2018-12-19T00:01:57.551Z,1007.21
2018-12-19T00:02:57.137Z,1007.16
2018-12-19T00:03:57.538Z,1007.19
2018-12-19T00:04:49.978Z,1007.13
2018-12-19T00:05:49.966Z,1007.19
2018-12-19T00:06:49.963Z,1007.09
2018-12-19T00:07:49.951Z,1007.12
2018-12-19T00:09:03.106Z,1007.10
2018-12-19T00:09:57.461Z,1006.98
2018-12-19T00:10:49.909Z,1007.00
2018-12-19T00:11:58.721Z,1007.01
2018-12-19T00:12:58.709Z,1006.98
2018-12-19T00:13:49.904Z,1006.97
2018-12-19T00:14:58.418Z,1006.95
2018-12-19T00:15:57.410Z,1006.86
2018-12-19T00:16:57.386Z,1006.86
2018-12-19T00:17:57.376Z,1006.81
2018-12-19T00:18:59.595Z,1006.83
2018-12-19T00:19:57.364Z,1006.76
2018-12-19T00:20:58.361Z,1006.76
2018-12-19T00:21:57.334Z,1006.82
2018-12-19T00:22:57.322Z,1006.90
2018-12-19T00:23:58.766Z,1006.88
2018-12-19T00:24:57.303Z,1007.02
2018-12-19T00:25:57.412Z,1006.96
2018-12-19T00:26:57.279Z,1006.85
2018-12-19T00:27:57.289Z,1006.87
2018-12-19T00:28:49.749Z,1006.81
2018-12-19T00:29:49.729Z,1006.72
2018-12-19T00:30:49.698Z,1006.79
2018-12-19T00:31:49.691Z,1006.71
2018-12-19T00:32:49.688Z,1006.70
2018-12-19T00:33:49.684Z,1006.74
2018-12-19T00:34:49.651Z,1006.83
2018-12-19T00:35:49.651Z,1006.79
2018-12-19T00:36:49.651Z,1006.78
2018-12-19T00:37:49.632Z,1006.83
2018-12-19T00:38:49.626Z,1006.84
2018-12-19T00:39:49.597Z,1006.86
2018-12-19T00:40:49.583Z,1006.79
2018-12-19T00:41:49.578Z,1006.89
2018-12-19T00:42:49.574Z,1006.86
2018-12-19T00:43:49.605Z,1006.93
2018-12-19T00:44:49.573Z,1006.88
2018-12-19T00:45:49.531Z,1006.85
2018-12-19T00:46:49.521Z,1006.75
2018-12-19T00:47:49.510Z,1006.74
2018-12-19T00:48:49.532Z,1006.75
2018-12-19T00:49:49.490Z,1006.68
2018-12-19T00:50:49.486Z,1006.59
2018-12-19T00:51:49.472Z,1006.54
2018-12-19T00:52:49.461Z,1006.40
2018-12-19T00:53:49.465Z,1006.33
2018-12-19T00:54:49.435Z,1006.31
2018-12-19T00:55:49.427Z,1006.49
2018-12-19T00:56:49.415Z,1006.60
2018-12-19T00:57:49.412Z,1006.50
2018-12-19T00:58:49.417Z,1006.50
2018-12-19T00:59:49.387Z,1006.51
2018-12-19T01:00:49.411Z,1006.55
2018-12-19T01:01:49.362Z,1006.58
2018-12-19T01:02:49.355Z,1006.50
2018-12-19T01:03:49.362Z,1006.59
2018-12-19T01:04:49.341Z,1006.58
2018-12-19T01:05:49.319Z,1006.62
2018-12-19T01:06:49.312Z,1006.66
2018-12-19T01:07:49.308Z,1006.72
2018-12-19T01:08:49.318Z,1006.71
2018-12-19T01:09:49.284Z,1006.85
2018-12-19T01:10:49.282Z,1006.76
2018-12-19T01:11:49.258Z,1006.89
2018-12-19T01:12:49.258Z,1006.96
2018-12-19T01:13:49.242Z,1006.96
2018-12-19T01:14:49.245Z,1006.86
2018-12-19T01:15:49.217Z,1006.77
2018-12-19T01:16:49.206Z,1006.71
2018-12-19T01:17:49.193Z,1006.77
2018-12-19T01:18:49.182Z,1006.78
2018-12-19T01:19:49.197Z,1006.78
2018-12-19T01:20:49.170Z,1006.79
2018-12-19T01:21:49.187Z,1006.82
2018-12-19T01:22:49.147Z,1006.79
2018-12-19T01:23:49.134Z,1006.87
2018-12-19T01:24:49.142Z,1006.86
2018-12-19T01:25:49.186Z,1006.84
2018-12-19T01:26:57.745Z,1006.86
2018-12-19T01:27:49.088Z,1007.03
2018-12-19T01:28:49.120Z,1006.94
2018-12-19T01:31:22.770Z,1006.97
2018-12-19T01:33:31.941Z,1006.90
2018-12-19T01:34:31.930Z,1006.95
2018-12-19T01:35:32.048Z,1006.97
2018-12-19T01:36:31.918Z,1006.97
2018-12-19T01:37:31.950Z,1006.96
2018-12-19T01:38:39.437Z,1007.00
2018-12-19T01:39:34.403Z,1006.98
2018-12-19T01:40:31.887Z,1007.03
2018-12-19T01:43:09.920Z,1007.01
2018-12-19T01:44:09.930Z,1007.00
2018-12-19T01:45:09.910Z,1006.99
2018-12-19T01:46:09.909Z,1006.96
2018-12-19T01:47:09.880Z,1006.98
2018-12-19T01:48:09.879Z,1007.02
2018-12-19T01:49:09.860Z,1007.03
2018-12-19T01:50:09.854Z,1006.99
2018-12-19T01:51:09.876Z,1007.00
2018-12-19T01:52:09.825Z,1007.01
2018-12-19T01:53:09.817Z,1007.00
2018-12-19T01:54:18.403Z,1006.95
2018-12-19T01:55:09.796Z,1006.96
2018-12-19T01:56:19.362Z,1007.07
2018-12-19T01:57:09.770Z,1007.02
2018-12-19T01:58:09.762Z,1006.96
2018-12-19T01:59:09.752Z,1007.06
2018-12-19T02:00:09.757Z,1007.05
2018-12-19T02:01:09.736Z,1007.06
2018-12-19T02:02:09.779Z,1007.01
2018-12-19T02:03:09.717Z,1007.01
2018-12-19T02:04:09.697Z,1007.04
2018-12-19T02:05:09.691Z,1007.06
2018-12-19T02:06:09.681Z,1007.10
2018-12-19T02:07:09.699Z,1007.08
2018-12-19T02:08:09.660Z,1007.03
2018-12-19T02:09:09.647Z,1007.00
2018-12-19T02:10:09.645Z,1007.02
2018-12-19T02:11:09.632Z,1007.03
2018-12-19T02:12:09.643Z,1007.09
2018-12-19T02:13:09.605Z,1006.99
2018-12-19T02:14:09.596Z,1007.05
2018-12-19T02:15:09.608Z,1007.12
2018-12-19T02:16:09.583Z,1007.07
2018-12-19T02:17:09.572Z,1007.02
2018-12-19T02:18:09.574Z,1006.90
2018-12-19T02:19:09.571Z,1006.89
2018-12-19T02:20:17.066Z,1006.89
2018-12-19T02:21:09.516Z,1006.86
2018-12-19T02:22:09.510Z,1006.84
2018-12-19T02:23:09.518Z,1006.78
2018-12-19T02:24:09.496Z,1006.79
2018-12-19T02:25:09.477Z,1006.87
2018-12-19T02:26:09.469Z,1006.89
2018-12-19T02:27:09.455Z,1006.92
2018-12-19T02:28:09.465Z,1006.83
2018-12-19T02:29:09.447Z,1006.77
2018-12-19T02:30:19.479Z,1006.72
2018-12-19T02:31:09.424Z,1006.90
2018-12-19T02:32:09.401Z,1006.91
2018-12-19T02:33:09.417Z,1006.91
2018-12-19T02:34:09.379Z,1006.89
2018-12-19T02:35:09.372Z,1006.89
2018-12-19T02:36:09.369Z,1006.84
2018-12-19T02:37:09.346Z,1006.91
2018-12-19T02:38:09.354Z,1006.96
2018-12-19T02:39:09.326Z,1006.94
2018-12-19T02:40:09.317Z,1007.07
2018-12-19T02:41:09.309Z,1006.98
2018-12-19T02:42:09.296Z,1006.90
2018-12-19T02:43:09.307Z,1006.86
2018-12-19T02:44:09.276Z,1006.82
2018-12-19T02:45:09.262Z,1006.82
2018-12-19T02:46:09.259Z,1006.84
2018-12-19T02:47:09.250Z,1006.85
2018-12-19T02:49:27.713Z,1006.79
2018-12-19T02:51:36.920Z,1006.71
2018-12-19T02:53:46.148Z,1006.72
2018-12-19T02:54:53.767Z,1006.73
2018-12-19T02:55:53.669Z,1006.66
2018-12-19T02:57:57.402Z,1006.68
2018-12-19T02:59:04.954Z,1006.62
2018-12-19T03:00:05.938Z,1006.56
2018-12-19T03:01:04.887Z,1006.57
2018-12-19T03:02:04.903Z,1006.55
2018-12-19T03:03:07.211Z,1006.46
2018-12-19T03:03:57.322Z,1006.39
2018-12-19T03:04:57.314Z,1006.45
2018-12-19T03:06:05.871Z,1006.40
2018-12-19T03:06:57.358Z,1006.34
2018-12-19T03:07:57.301Z,1006.36
2018-12-19T03:09:09.291Z,1006.42
2018-12-19T03:11:24.388Z,1006.39
2018-12-19T03:13:47.170Z,1006.30
2018-12-19T03:15:57.420Z,1006.27
2018-12-19T03:16:57.348Z,1006.21
2018-12-19T03:17:57.338Z,1006.24
2018-12-19T03:20:15.102Z,1006.21
2018-12-19T03:22:37.705Z,1006.13
2018-12-19T03:24:47.943Z,1006.14
2018-12-19T03:25:47.918Z,1006.12
2018-12-19T03:28:27.245Z,1006.14
2018-12-19T03:30:36.492Z,1006.16
2018-12-19T03:32:45.703Z,1006.07
2018-12-19T03:35:07.761Z,1006.04
2018-12-19T03:37:16.996Z,1006.09
2018-12-19T03:39:26.248Z,1006.12
2018-12-19T03:40:34.709Z,1006.11
2018-12-19T03:43:52.822Z,1006.16
2018-12-19T03:46:02.048Z,1006.09
2018-12-19T03:47:10.581Z,1006.19
2018-12-19T03:48:10.823Z,1006.20
2018-12-19T03:49:09.548Z,1006.16
2018-12-19T03:50:11.922Z,1006.20
2018-12-19T03:51:09.530Z,1006.11
2018-12-19T03:52:09.502Z,1006.11
2018-12-19T03:53:09.552Z,1006.08
2018-12-19T03:54:09.492Z,1006.13
2018-12-19T03:55:10.588Z,1006.05
2018-12-19T03:56:10.490Z,1006.00
2018-12-19T03:57:09.463Z,1006.02
2018-12-19T03:59:19.086Z,1005.93
2018-12-19T04:01:29.323Z,1005.91
2018-12-19T04:03:39.779Z,1005.93
2018-12-19T04:05:48.950Z,1005.86
2018-12-19T04:07:58.191Z,1005.88
2018-12-19T04:10:07.415Z,1005.81
2018-12-19T04:12:16.649Z,1005.77
2018-12-19T04:14:26.885Z,1005.71
2018-12-19T04:15:36.618Z,1005.75
2018-12-19T04:16:26.808Z,1005.81
2018-12-19T04:17:35.332Z,1005.71
2018-12-19T04:19:42.936Z,1005.73
2018-12-19T04:21:52.174Z,1005.74
2018-12-19T04:24:02.394Z,1005.75
2018-12-19T04:25:10.934Z,1005.76
2018-12-19T04:26:11.156Z,1005.81
2018-12-19T04:27:09.889Z,1005.84
2018-12-19T04:28:09.873Z,1005.86
2018-12-19T04:29:09.933Z,1005.83
2018-12-19T04:30:09.858Z,1005.88
2018-12-19T04:31:09.853Z,1005.86
2018-12-19T04:32:11.868Z,1005.89
2018-12-19T04:33:02.278Z,1005.94
2018-12-19T04:34:09.811Z,1005.91
2018-12-19T04:35:09.802Z,1005.96
2018-12-19T04:36:09.813Z,1005.96
2018-12-19T04:37:09.990Z,1005.94
2018-12-19T04:38:09.764Z,1005.95
2018-12-19T04:39:03.044Z,1005.94
2018-12-19T04:40:09.741Z,1005.95
2018-12-19T04:41:10.745Z,1005.96
2018-12-19T04:42:12.167Z,1005.94
2018-12-19T04:43:09.740Z,1005.97
2018-12-19T04:44:09.715Z,1006.03
2018-12-19T04:45:09.698Z,1006.03
2018-12-19T04:46:02.150Z,1006.05
2018-12-19T04:47:09.672Z,1006.06
2018-12-19T04:48:12.354Z,1006.08
2018-12-19T04:49:09.659Z,1006.07
2018-12-19T04:50:09.643Z,1006.10
2018-12-19T04:51:02.088Z,1006.04
2018-12-19T04:52:09.622Z,1006.03
2018-12-19T04:53:10.998Z,1006.05
2018-12-19T04:54:09.600Z,1005.95
2018-12-19T04:55:09.608Z,1005.96
2018-12-19T04:57:18.810Z,1005.96
2018-12-19T04:59:28.037Z,1005.97
2018-12-19T05:00:36.556Z,1005.94
2018-12-19T05:01:35.617Z,1005.94
2018-12-19T05:02:35.603Z,1006.03
2018-12-19T05:04:44.231Z,1005.95
2018-12-19T05:06:54.523Z,1005.93
2018-12-19T05:09:23.768Z,1005.96
2018-12-19T05:11:52.440Z,1005.96
2018-12-19T05:13:54.235Z,1006.07
2018-12-19T05:14:54.321Z,1006.07
2018-12-19T05:15:54.212Z,1006.09
2018-12-19T05:16:54.211Z,1006.12
2018-12-19T05:18:45.284Z,1006.10
2018-12-19T05:19:55.008Z,1006.14
2018-12-19T05:20:45.251Z,1006.05
2018-12-19T05:21:45.237Z,1006.10
2018-12-19T05:22:45.231Z,1006.08
2018-12-19T05:23:45.220Z,1006.04
2018-12-19T05:24:45.238Z,1005.98
2018-12-19T05:25:45.214Z,1005.96
2018-12-19T05:26:45.192Z,1005.98
2018-12-19T05:27:45.180Z,1005.98
2018-12-19T05:28:45.174Z,1005.98
2018-12-19T05:29:45.163Z,1006.02
2018-12-19T05:30:45.161Z,1006.01
2018-12-19T05:31:45.132Z,1006.00
2018-12-19T05:32:45.205Z,1005.98
2018-12-19T05:33:45.108Z,1006.05
2018-12-19T05:34:45.104Z,1006.07
2018-12-19T05:35:45.162Z,1006.09
2018-12-19T05:36:45.121Z,1006.13
2018-12-19T05:37:45.068Z,1006.16
2018-12-19T05:38:45.059Z,1006.16
2018-12-19T05:39:45.049Z,1006.12
2018-12-19T05:40:45.057Z,1006.19
2018-12-19T05:41:45.028Z,1006.18
2018-12-19T05:42:45.043Z,1006.18
2018-12-19T05:43:45.013Z,1006.27
2018-12-19T05:44:45.016Z,1006.25
2018-12-19T05:45:44.999Z,1006.28
2018-12-19T05:46:44.974Z,1006.31
2018-12-19T05:47:44.966Z,1006.24
2018-12-19T05:48:44.952Z,1006.28
2018-12-19T05:49:44.940Z,1006.31
2018-12-19T05:50:44.947Z,1006.26
2018-12-19T05:51:44.974Z,1006.28
2018-12-19T05:52:44.955Z,1006.23
2018-12-19T05:53:44.896Z,1006.19
2018-12-19T05:54:44.886Z,1006.15
2018-12-19T05:55:44.917Z,1006.19
2018-12-19T05:56:44.885Z,1006.16
2018-12-19T05:57:44.852Z,1006.16
2018-12-19T05:58:44.852Z,1006.23
2018-12-19T05:59:44.862Z,1006.12
2018-12-19T06:00:44.824Z,1006.24
2018-12-19T06:01:44.844Z,1006.22
2018-12-19T06:02:44.815Z,1006.29
2018-12-19T06:03:44.820Z,1006.27
2018-12-19T06:04:44.781Z,1006.32
2018-12-19T06:05:44.772Z,1006.33
2018-12-19T06:06:44.806Z,1006.37
2018-12-19T06:07:44.787Z,1006.35
2018-12-19T06:08:44.742Z,1006.35
2018-12-19T06:09:44.732Z,1006.34
2018-12-19T06:10:44.723Z,1006.36
2018-12-19T06:11:44.709Z,1006.36
2018-12-19T06:12:44.714Z,1006.32
2018-12-19T06:13:44.703Z,1006.34
2018-12-19T06:14:44.679Z,1006.35
2018-12-19T06:15:44.691Z,1006.31
2018-12-19T06:16:44.662Z,1006.36
2018-12-19T06:17:44.668Z,1006.39
2018-12-19T06:18:44.632Z,1006.40
2018-12-19T06:19:44.624Z,1006.37
2018-12-19T06:20:44.609Z,1006.35
2018-12-19T06:21:44.621Z,1006.36
2018-12-19T06:22:44.616Z,1006.37
2018-12-19T06:23:44.579Z,1006.36
2018-12-19T06:24:44.595Z,1006.37
2018-12-19T06:25:44.583Z,1006.39
2018-12-19T06:26:44.563Z,1006.40
2018-12-19T06:27:44.540Z,1006.48
2018-12-19T06:28:44.578Z,1006.46
2018-12-19T06:29:44.550Z,1006.42
2018-12-19T06:30:44.527Z,1006.44
2018-12-19T06:31:44.491Z,1006.47
2018-12-19T06:32:44.512Z,1006.48
2018-12-19T06:33:44.484Z,1006.43
2018-12-19T06:34:44.480Z,1006.47
2018-12-19T06:35:44.448Z,1006.45
2018-12-19T06:36:44.437Z,1006.40
2018-12-19T06:37:44.428Z,1006.48
2018-12-19T06:38:44.422Z,1006.43
2018-12-19T06:39:44.445Z,1006.45
2018-12-19T06:40:44.435Z,1006.45
2018-12-19T06:41:44.451Z,1006.44
2018-12-19T06:42:44.373Z,1006.44
2018-12-19T06:43:44.364Z,1006.45
2018-12-19T06:44:44.416Z,1006.49
2018-12-19T06:45:44.342Z,1006.49
2018-12-19T06:46:44.332Z,1006.44
2018-12-19T06:47:44.322Z,1006.50
2018-12-19T06:48:44.328Z,1006.45
2018-12-19T06:49:44.324Z,1006.48
2018-12-19T06:50:51.833Z,1006.49
2018-12-19T06:51:44.280Z,1006.51
2018-12-19T06:52:44.269Z,1006.50
2018-12-19T06:53:44.260Z,1006.45
2018-12-19T06:54:44.305Z,1006.50
2018-12-19T06:55:44.277Z,1006.56
2018-12-19T06:56:44.226Z,1006.44
2018-12-19T06:57:44.214Z,1006.46
2018-12-19T06:58:44.203Z,1006.52
2018-12-19T06:59:44.236Z,1006.47
2018-12-19T07:00:44.184Z,1006.51
2018-12-19T07:01:44.178Z,1006.53
2018-12-19T07:02:44.164Z,1006.50
2018-12-19T07:03:44.151Z,1006.52
2018-12-19T07:04:44.141Z,1006.54
2018-12-19T07:05:44.148Z,1006.53
2018-12-19T07:06:44.117Z,1006.58
2018-12-19T07:07:44.111Z,1006.62
2018-12-19T07:08:44.098Z,1006.59
2018-12-19T07:09:44.099Z,1006.56
2018-12-19T07:10:44.094Z,1006.58
2018-12-19T07:11:44.079Z,1006.55
2018-12-19T07:12:44.057Z,1006.60
2018-12-19T07:13:44.042Z,1006.63
2018-12-19T07:14:44.061Z,1006.64
2018-12-19T07:15:44.040Z,1006.63
2018-12-19T07:16:44.012Z,1006.66
2018-12-19T07:17:44.009Z,1006.65
2018-12-19T07:18:43.987Z,1006.62
2018-12-19T07:19:43.978Z,1006.66
2018-12-19T07:20:44.016Z,1006.65
2018-12-19T07:21:43.954Z,1006.69
2018-12-19T07:22:43.943Z,1006.73
2018-12-19T07:23:43.943Z,1006.74
2018-12-19T07:24:43.923Z,1006.73
2018-12-19T07:25:44.012Z,1006.76
2018-12-19T07:26:43.906Z,1006.78
2018-12-19T07:27:43.904Z,1006.80
2018-12-19T07:28:43.880Z,1006.80
2018-12-19T07:29:43.891Z,1006.83
2018-12-19T07:30:43.885Z,1006.82
2018-12-19T07:31:43.857Z,1006.80
2018-12-19T07:32:43.887Z,1006.86
2018-12-19T07:33:43.860Z,1006.85
2018-12-19T07:34:44.315Z,1006.87
2018-12-19T07:35:43.853Z,1006.85
2018-12-19T07:36:43.796Z,1006.89
2018-12-19T07:37:43.780Z,1006.93
2018-12-19T07:38:43.781Z,1006.97
2018-12-19T07:39:43.810Z,1006.95
2018-12-19T07:40:45.806Z,1006.93
2018-12-19T07:41:43.827Z,1006.96
2018-12-19T07:42:43.729Z,1006.85
2018-12-19T07:43:43.718Z,1006.88
2018-12-19T07:44:43.703Z,1006.94
2018-12-19T07:45:43.720Z,1006.97
2018-12-19T07:46:43.682Z,1006.89
2018-12-19T07:47:43.681Z,1006.97
2018-12-19T07:48:43.668Z,1006.97
2018-12-19T07:49:43.656Z,1006.97
2018-12-19T07:50:43.694Z,1007.02
2018-12-19T07:51:43.647Z,1007.04
2018-12-19T07:52:43.628Z,1007.06
2018-12-19T07:53:43.618Z,1007.12
2018-12-19T07:54:43.602Z,1007.10
2018-12-19T07:55:43.588Z,1007.17
2018-12-19T07:56:43.598Z,1007.19
2018-12-19T07:57:43.565Z,1007.15
2018-12-19T07:58:43.572Z,1007.17
2018-12-19T07:59:43.554Z,1007.17
2018-12-19T08:00:43.540Z,1007.16
2018-12-19T08:01:43.566Z,1007.18
2018-12-19T08:02:43.521Z,1007.24
2018-12-19T08:03:43.505Z,1007.26
2018-12-19T08:04:43.495Z,1007.22
2018-12-19T08:05:43.488Z,1007.32
2018-12-19T08:06:43.469Z,1007.32
2018-12-19T08:07:43.484Z,1007.29
2018-12-19T08:08:43.452Z,1007.26
2018-12-19T08:09:43.486Z,1007.29
2018-12-19T08:10:43.439Z,1007.26
2018-12-19T08:11:43.500Z,1007.28
2018-12-19T08:12:43.431Z,1007.22
2018-12-19T08:13:43.403Z,1007.22
2018-12-19T08:14:43.413Z,1007.13
2018-12-19T08:15:43.394Z,1007.19
2018-12-19T08:16:43.400Z,1007.23
2018-12-19T08:17:43.540Z,1007.15
2018-12-19T08:18:43.339Z,1007.20
2018-12-19T08:19:43.331Z,1007.22
2018-12-19T08:20:43.318Z,1007.20
2018-12-19T08:21:43.309Z,1007.20
2018-12-19T08:22:43.382Z,1007.21
2018-12-19T08:23:43.302Z,1007.21
2018-12-19T08:24:43.279Z,1007.21
2018-12-19T08:25:43.269Z,1007.24
2018-12-19T08:26:43.275Z,1007.31
2018-12-19T08:27:43.268Z,1007.31
2018-12-19T08:28:43.258Z,1007.29
2018-12-19T08:29:43.227Z,1007.32
2018-12-19T08:30:43.212Z,1007.31
2018-12-19T08:31:43.203Z,1007.29
2018-12-19T08:32:43.239Z,1007.28
2018-12-19T08:33:43.185Z,1007.35
2018-12-19T08:34:43.179Z,1007.35
2018-12-19T08:35:43.161Z,1007.35
2018-12-19T08:36:43.225Z,1007.38
2018-12-19T08:37:43.143Z,1007.39
2018-12-19T08:38:43.147Z,1007.40
2018-12-19T08:39:43.119Z,1007.48
2018-12-19T08:40:43.113Z,1007.48
2018-12-19T08:41:43.103Z,1007.46
2018-12-19T08:42:43.082Z,1007.47
2018-12-19T08:43:43.088Z,1007.50
2018-12-19T08:44:43.067Z,1007.47
2018-12-19T08:45:43.062Z,1007.48
2018-12-19T08:46:43.071Z,1007.52
2018-12-19T08:47:43.030Z,1007.53
2018-12-19T08:48:43.036Z,1007.53
2018-12-19T08:49:43.019Z,1007.50
2018-12-19T08:50:42.994Z,1007.49
2018-12-19T08:51:42.994Z,1007.48
2018-12-19T08:52:42.975Z,1007.42
2018-12-19T08:53:42.982Z,1007.47
2018-12-19T08:54:42.951Z,1007.47
2018-12-19T08:55:42.939Z,1007.46
2018-12-19T08:56:42.928Z,1007.51
2018-12-19T08:57:42.919Z,1007.47
2018-12-19T08:58:42.949Z,1007.52
2018-12-19T08:59:42.903Z,1007.52
2018-12-19T09:00:42.912Z,1007.56
2018-12-19T09:01:42.877Z,1007.57
2018-12-19T09:02:42.865Z,1007.58
2018-12-19T09:03:42.872Z,1007.57
2018-12-19T09:04:42.916Z,1007.55
2018-12-19T09:05:42.833Z,1007.57
2018-12-19T09:06:42.823Z,1007.62
2018-12-19T09:07:42.810Z,1007.59
2018-12-19T09:08:42.819Z,1007.63
2018-12-19T09:09:42.792Z,1007.65
2018-12-19T09:10:42.787Z,1007.62
2018-12-19T09:11:42.774Z,1007.69
2018-12-19T09:12:42.757Z,1007.59
2018-12-19T09:13:42.769Z,1007.64
2018-12-19T09:14:42.741Z,1007.59
2018-12-19T09:15:42.722Z,1007.58
2018-12-19T09:16:42.718Z,1007.65
2018-12-19T09:17:42.706Z,1007.65
2018-12-19T09:18:42.775Z,1007.64
2018-12-19T09:19:42.703Z,1007.62
2018-12-19T09:20:42.671Z,1007.66
2018-12-19T09:21:42.662Z,1007.65
2018-12-19T09:22:42.650Z,1007.66
2018-12-19T09:23:42.639Z,1007.66
2018-12-19T09:24:42.652Z,1007.70
2018-12-19T09:25:42.620Z,1007.70
2018-12-19T09:26:42.639Z,1007.72
2018-12-19T09:27:42.599Z,1007.67
2018-12-19T09:28:42.586Z,1007.73
2018-12-19T09:29:42.600Z,1007.67
2018-12-19T09:30:42.561Z,1007.75
2018-12-19T09:31:42.552Z,1007.71
2018-12-19T09:32:42.539Z,1007.74
2018-12-19T09:33:42.538Z,1007.79
2018-12-19T09:34:42.541Z,1007.77
2018-12-19T09:35:42.509Z,1007.76
2018-12-19T09:36:42.504Z,1007.75
2018-12-19T09:37:42.506Z,1007.76
2018-12-19T09:38:42.490Z,1007.79
2018-12-19T09:39:42.522Z,1007.79
2018-12-19T09:40:42.480Z,1007.79
2018-12-19T09:41:42.503Z,1007.78
2018-12-19T09:42:42.442Z,1007.79
2018-12-19T09:43:42.460Z,1007.79
2018-12-19T09:44:42.430Z,1007.80
2018-12-19T09:45:42.405Z,1007.76
2018-12-19T09:46:42.399Z,1007.80
2018-12-19T09:47:42.392Z,1007.81
2018-12-19T09:48:42.381Z,1007.83
2018-12-19T09:49:42.429Z,1007.85
2018-12-19T09:50:42.352Z,1007.87
2018-12-19T09:51:42.340Z,1007.93
2018-12-19T09:52:42.339Z,1007.89
2018-12-19T09:53:42.316Z,1007.82
2018-12-19T09:54:42.334Z,1007.89
2018-12-19T09:55:42.294Z,1007.89
2018-12-19T09:56:42.287Z,1007.86
2018-12-19T09:57:42.274Z,1007.84
2018-12-19T09:58:42.263Z,1007.85
2018-12-19T09:59:42.274Z,1007.82
2018-12-19T10:00:42.240Z,1007.89
2018-12-19T10:01:42.233Z,1007.88
2018-12-19T10:02:42.222Z,1007.79
2018-12-19T10:03:42.212Z,1007.83
2018-12-19T10:04:42.241Z,1007.83
2018-12-19T10:05:42.189Z,1007.75
2018-12-19T10:06:42.182Z,1007.77
2018-12-19T10:07:42.167Z,1007.76
2018-12-19T10:08:42.160Z,1007.69
2018-12-19T10:09:42.170Z,1007.70
2018-12-19T10:10:42.158Z,1007.67
2018-12-19T10:11:42.127Z,1007.70
2018-12-19T10:12:42.144Z,1007.67
2018-12-19T10:13:42.115Z,1007.64
2018-12-19T10:14:42.090Z,1007.61
2018-12-19T10:15:42.076Z,1007.60
2018-12-19T10:16:42.090Z,1007.53
2018-12-19T10:17:42.066Z,1007.50
2018-12-19T10:18:42.045Z,1007.53
2018-12-19T10:19:42.035Z,1007.54
2018-12-19T10:20:42.025Z,1007.48
2018-12-19T10:21:42.033Z,1007.50
2018-12-19T10:22:42.024Z,1007.50
2018-12-19T10:23:42.003Z,1007.48
2018-12-19T10:24:41.989Z,1007.44
2018-12-19T10:25:41.970Z,1007.40
2018-12-19T10:26:41.961Z,1007.35
2018-12-19T10:27:41.988Z,1007.40
2018-12-19T10:28:41.938Z,1007.43
2018-12-19T10:29:41.930Z,1007.41
2018-12-19T10:30:41.918Z,1007.40
2018-12-19T10:31:41.930Z,1007.40
2018-12-19T10:32:41.893Z,1007.42
2018-12-19T10:33:41.936Z,1007.37
2018-12-19T10:34:41.874Z,1007.37
2018-12-19T10:35:41.863Z,1007.32
2018-12-19T10:36:41.850Z,1007.40
2018-12-19T10:37:41.847Z,1007.38
2018-12-19T10:38:41.857Z,1007.39
2018-12-19T10:39:41.822Z,1007.38
2018-12-19T10:40:41.821Z,1007.35
2018-12-19T10:41:41.815Z,1007.32
2018-12-19T10:42:41.789Z,1007.30
2018-12-19T10:43:41.860Z,1007.28
2018-12-19T10:44:41.765Z,1007.24
2018-12-19T10:45:41.756Z,1007.22
2018-12-19T10:46:41.742Z,1007.21
2018-12-19T10:47:41.731Z,1007.20
2018-12-19T10:48:41.727Z,1007.17
2018-12-19T10:49:41.729Z,1007.11
2018-12-19T10:50:41.704Z,1007.19
2018-12-19T10:51:41.689Z,1007.13
2018-12-19T10:52:41.700Z,1007.14
2018-12-19T10:53:41.669Z,1007.14
2018-12-19T10:54:41.676Z,1007.15
2018-12-19T10:55:41.667Z,1007.11
2018-12-19T10:56:41.636Z,1007.13
2018-12-19T10:57:41.625Z,1007.17
2018-12-19T10:58:41.620Z,1007.14
2018-12-19T10:59:41.620Z,1007.12
2018-12-19T11:00:41.601Z,1007.12
2018-12-19T11:01:41.583Z,1007.08
2018-12-19T11:02:41.694Z,1007.10
2018-12-19T11:03:41.686Z,1007.08
2018-12-19T11:04:41.573Z,1007.09
2018-12-19T11:05:41.538Z,1007.11
2018-12-19T11:06:41.593Z,1007.06
2018-12-19T11:07:41.567Z,1007.11
2018-12-19T11:08:41.503Z,1007.09
2018-12-19T11:09:41.511Z,1007.08
2018-12-19T11:10:41.498Z,1007.11
2018-12-19T11:11:41.478Z,1007.15
2018-12-19T11:12:41.465Z,1007.14
2018-12-19T11:13:41.449Z,1007.10
2018-12-19T11:14:41.459Z,1007.15
2018-12-19T11:15:41.434Z,1007.11
2018-12-19T11:16:41.422Z,1007.12
2018-12-19T11:17:41.405Z,1007.11
2018-12-19T11:18:41.414Z,1007.08
2018-12-19T11:19:41.426Z,1007.07
2018-12-19T11:20:41.411Z,1007.07
2018-12-19T11:21:41.361Z,1007.02
2018-12-19T11:22:41.353Z,1007.07
2018-12-19T11:23:41.365Z,1007.06
2018-12-19T11:24:41.328Z,1007.04
2018-12-19T11:25:41.335Z,1007.04
2018-12-19T11:26:41.322Z,1007.06
2018-12-19T11:27:41.303Z,1007.07
2018-12-19T11:28:41.284Z,1007.07
2018-12-19T11:29:41.300Z,1007.09
2018-12-19T11:30:41.264Z,1007.10
2018-12-19T11:31:41.251Z,1007.07
2018-12-19T11:32:41.260Z,1007.08
2018-12-19T11:33:41.233Z,1007.14
2018-12-19T11:34:41.223Z,1007.13
2018-12-19T11:35:41.226Z,1007.10
2018-12-19T11:36:41.198Z,1007.07
2018-12-19T11:37:41.193Z,1007.10
2018-12-19T11:38:41.185Z,1007.08
2018-12-19T11:39:41.179Z,1007.14
2018-12-19T11:40:41.171Z,1007.13
2018-12-19T11:41:41.147Z,1007.15
2018-12-19T11:42:41.135Z,1007.16
2018-12-19T11:43:41.126Z,1007.07
2018-12-19T11:44:41.131Z,1007.11
2018-12-19T11:45:41.102Z,1007.09
2018-12-19T11:46:41.095Z,1007.14
2018-12-19T11:47:41.127Z,1007.10
2018-12-19T11:48:41.072Z,1007.12
2018-12-19T11:49:41.079Z,1007.13
2018-12-19T11:50:41.107Z,1007.09
2018-12-19T11:51:41.039Z,1007.08
2018-12-19T11:52:41.032Z,1007.04
2018-12-19T11:53:41.015Z,1007.05
2018-12-19T11:54:41.045Z,1007.05
2018-12-19T11:55:40.997Z,1007.07
2018-12-19T11:56:40.982Z,1007.07
2018-12-19T11:57:40.974Z,1007.06
2018-12-19T11:58:40.972Z,1007.06
2018-12-19T11:59:40.949Z,1007.03
2018-12-19T12:00:40.961Z,1007.09
2018-12-19T12:01:41.565Z,1007.09
2018-12-19T12:02:40.921Z,1007.07
2018-12-19T12:03:40.912Z,1007.05
2018-12-19T12:04:40.920Z,1007.03
2018-12-19T12:05:40.884Z,1007.03
2018-12-19T12:06:40.896Z,1007.06
2018-12-19T12:07:40.881Z,1007.07
2018-12-19T12:08:40.891Z,1007.09
2018-12-19T12:09:40.877Z,1007.06
2018-12-19T12:10:40.829Z,1007.03
2018-12-19T12:11:45.586Z,1007.07
2018-12-19T12:12:41.812Z,1007.03
2018-12-19T12:13:40.799Z,1007.00
2018-12-19T12:14:40.815Z,1006.97
2018-12-19T12:15:40.777Z,1006.98
2018-12-19T12:16:40.766Z,1007.06
2018-12-19T12:17:40.758Z,1007.01
2018-12-19T12:18:40.747Z,1006.97
2018-12-19T12:19:50.035Z,1006.97
2018-12-19T12:20:40.723Z,1006.97
2018-12-19T12:21:40.710Z,1007.01
2018-12-19T12:22:41.240Z,1006.97
2018-12-19T12:23:47.152Z,1006.97
2018-12-19T12:24:41.685Z,1006.88
2018-12-19T12:25:40.736Z,1006.85
2018-12-19T12:26:40.682Z,1006.86
2018-12-19T12:27:40.651Z,1006.85
2018-12-19T12:28:40.672Z,1006.83
2018-12-19T12:29:40.637Z,1006.79
2018-12-19T12:30:40.660Z,1006.78
2018-12-19T12:31:40.605Z,1006.79
2018-12-19T12:32:40.619Z,1006.80
2018-12-19T12:33:40.581Z,1006.83
2018-12-19T12:34:40.603Z,1006.81
2018-12-19T12:35:40.598Z,1006.79
2018-12-19T12:36:40.552Z,1006.79
2018-12-19T12:37:40.546Z,1006.84
2018-12-19T12:38:40.540Z,1006.80
2018-12-19T12:39:40.538Z,1006.81
2018-12-19T12:40:40.563Z,1006.83
2018-12-19T12:41:40.498Z,1006.75
2018-12-19T12:42:40.496Z,1006.74
2018-12-19T12:43:40.489Z,1006.78
2018-12-19T12:44:40.468Z,1006.79
2018-12-19T12:45:40.471Z,1006.75
2018-12-19T12:46:40.481Z,1006.79
2018-12-19T12:47:40.441Z,1006.75
2018-12-19T12:48:47.975Z,1006.67
2018-12-19T12:49:47.970Z,1006.70
2018-12-19T12:50:47.974Z,1006.63
2018-12-19T12:51:50.119Z,1006.62
2018-12-19T12:52:47.935Z,1006.54
2018-12-19T12:53:48.018Z,1006.53
2018-12-19T12:54:47.915Z,1006.52
2018-12-19T12:55:48.935Z,1006.62
2018-12-19T12:58:09.099Z,1006.62